Mobjack, Virginia
Current Conditions -  °F | °C
As of 12:35 AM on Saturday 25 Oct 2014 (Local Time) from KW75 Reporting Station
Clear Clear  
Wind Chill: 46°   Ceiling: Unl
Heat Index: 46°   Visibility: 10mi
Dew Point: 42°   Wind: 3mph
Humidity: 86%   Direction: 280°W
Pressure: 29.95"   Gusts: NA
Location:  37.3805°N, 76.3593°W
Report Text: KW75 250435Z AUTO 28003KT 10SM CLR 08/06 A2995 RMK AO1 T00770055
Loading
Personal Weather Stations






























Interactive Weather Map
Tropical Storm Tracking
New forecast layout! Learn more

10-Day Weather Forecast

Advertisements
Track Severe Weather on mobile